Other Surface Observations
Issued by NWS Great Falls, MT

Home | Current Version | Previous Version | Text Only | Print | Product List | Glossary On
Versions: 1 2 3 4 5 6 7 8 9 10 11 12 13 14 15 16 17 18 19 20 21 22 23 24 25 26 27 28 29 30 31 32 33 34 35 36 37 38 39 40 41 42 43 44 45 46 47 48 49 50
000
SXUS55 KTFX 061608
OSOTFX

AREA AWOS OBSERVATIONS
NATIONAL WEATHER SERVICE GREAT FALLS MT
0908 AM MST Tue Dec 06 2016

METAR K6S8 061555Z AUTO 02002KT 40SM M13/M18 A3003 RMK A01 T11271177
METAR K6S8 061455Z AUTO 34004KT 40SM M15/M20 A3002 RMK A01 T11501200
METAR K7S0 061555Z AUTO 19000KT 25SM M09/M12 A2998 RMK A01 T10941122
METAR K7S1 061555Z AUTO 36006KT 25SM M12/M17 A2988 RMK A01 T11221172
METAR K97M 061555Z AUTO 28014KT 15SM M18/M22 A2995 RMK A01 T11831222
METAR K9S2 061555Z AUTO 29017KT 25SM M18/M24 A3003 RMK A01 T11771244
METAR K9S5 061555Z AUTO 01005KT 15SM M11/M37 A2997 RMK A01 T11111372
METAR KRPX 061455Z AUTO 08002KT 40SM M17/M21 A2998 RMK A01 T11661211
METAR KS01 061555Z AUTO 30006KT 15SM M18/M22 A3014 RMK A01 T11831216
METAR KS34 061555Z AUTO 28000KT 15SM M10/M14 A3000 RMK A01 T11001144
METAR KTHM 061455Z AUTO 26000KT 40SM M09/M11 A3003 RMK A01 T10881111



USA.gov is the U.S. government's official web portal to all federal, state and local government web resources and services.